Time;durP1;ratioP1;P1;durP2;ratioP2;P2;SDS_P1;SDS_P2;PMS_P1;PMS_P2;Temp;Humidity;BMP_temperature;BMP_pressure;BME280_temperature;BME280_humidity;BME280_pressure;Samples;Min_cycle;Max_cycle;Signal;HPM_P1;HPM_P2
2024/02/12 00:00:18;;;;;;;3.15;1.60;;;;;;;9.48;51.75;99300.53;5030215;28;20101;-71
2024/02/12 00:02:47;;;;;;;4.03;1.60;;;;;;;9.46;51.98;99300.69;5028196;28;20045;-71
2024/02/12 00:05:16;;;;;;;3.40;1.88;;;;;;;9.45;51.91;99295.38;5051173;28;20518;-72
2024/02/12 00:07:44;;;;;;;3.28;1.58;;;;;;;9.45;51.94;99303.56;5052853;28;20352;-71
2024/02/12 00:10:14;;;;;;;3.00;1.90;;;;;;;9.44;51.58;99305.44;5045987;28;20052;-71
2024/02/12 00:12:43;;;;;;;3.20;1.83;;;;;;;9.42;51.84;99306.63;5029961;28;20076;-71
2024/02/12 00:15:12;;;;;;;3.63;1.70;;;;;;;9.41;51.54;99310.41;5050392;28;20118;-72
2024/02/12 00:17:41;;;;;;;3.40;1.80;;;;;;;9.39;51.50;99312.44;5038404;28;20056;-72
2024/02/12 00:20:11;;;;;;;3.25;1.98;;;;;;;9.39;51.60;99317.91;5033341;28;20127;-72
2024/02/12 00:22:41;;;;;;;3.97;1.98;;;;;;;9.36;51.88;99321.78;5049605;28;20487;-72
2024/02/12 00:25:12;;;;;;;3.30;2.03;;;;;;;9.35;51.88;99319.19;5036681;28;20116;-72
2024/02/12 00:27:42;;;;;;;3.95;1.88;;;;;;;9.35;51.37;99325.50;5056311;28;20790;-72
2024/02/12 00:30:12;;;;;;;3.70;2.00;;;;;;;9.34;51.52;99326.53;5046236;28;20447;-72
2024/02/12 00:32:42;;;;;;;3.35;1.90;;;;;;;9.31;51.95;99321.41;5058493;28;20053;-72
2024/02/12 00:35:11;;;;;;;3.80;1.98;;;;;;;9.31;51.79;99317.84;5030858;28;20051;-72
2024/02/12 00:37:39;;;;;;;4.90;2.17;;;;;;;9.30;52.04;99325.16;5038587;28;20354;-72
2024/02/12 00:40:08;;;;;;;4.10;2.28;;;;;;;9.29;52.20;99323.44;5036946;28;20037;-72
2024/02/12 00:42:38;;;;;;;4.13;2.08;;;;;;;9.29;51.78;99330.78;5039855;28;20047;-72
2024/02/12 00:45:10;;;;;;;3.67;2.05;;;;;;;9.30;51.82;99327.91;5052248;28;20123;-72
2024/02/12 00:47:39;;;;;;;4.18;2.40;;;;;;;9.24;51.65;99324.97;5061768;28;20109;-72
2024/02/12 00:50:09;;;;;;;3.88;2.30;;;;;;;9.28;51.80;99339.97;5056773;28;20044;-72
2024/02/12 00:52:38;;;;;;;5.13;2.60;;;;;;;9.26;52.06;99336.56;5059662;28;20501;-72
2024/02/12 00:55:08;;;;;;;3.60;2.28;;;;;;;9.26;52.35;99336.56;5051081;23;20077;-72
2024/02/12 00:57:36;;;;;;;3.70;2.47;;;;;;;9.25;52.24;99338.44;5054524;28;20059;-74
2024/02/12 01:00:12;;;;;;;4.22;2.40;;;;;;;9.25;51.82;99343.88;5028152;28;20073;-74
2024/02/12 01:02:43;;;;;;;4.03;2.30;;;;;;;9.25;52.05;99353.94;5044563;28;20128;-74
2024/02/12 01:05:13;;;;;;;5.05;2.63;;;;;;;9.24;51.88;99347.66;5037793;28;20047;-74
2024/02/12 01:07:42;;;;;;;4.07;2.50;;;;;;;9.24;52.12;99360.44;5042080;28;20048;-74
2024/02/12 01:10:11;;;;;;;5.07;2.60;;;;;;;9.24;51.97;99358.59;5042720;28;20370;-74
2024/02/12 01:12:40;;;;;;;4.72;2.55;;;;;;;9.22;51.87;99357.88;5050057;28;20037;-74
2024/02/12 01:15:10;;;;;;;4.18;2.10;;;;;;;9.22;52.36;99370.66;5026468;28;20553;-74
2024/02/12 01:17:38;;;;;;;4.18;2.47;;;;;;;9.21;52.03;99364.34;5039084;28;20048;-74
2024/02/12 01:20:18;;;;;;;4.20;2.30;;;;;;;9.22;52.21;99373.41;5037271;28;20041;-74
2024/02/12 01:22:48;;;;;;;4.38;2.70;;;;;;;9.21;52.47;99377.16;5028798;28;20404;-74
2024/02/12 01:25:17;;;;;;;4.38;2.90;;;;;;;9.20;51.88;99384.47;5025927;28;20369;-73
2024/02/12 01:27:45;;;;;;;4.57;2.65;;;;;;;9.20;51.91;99380.88;5037828;28;20073;-74
2024/02/12 01:30:14;;;;;;;4.97;2.90;;;;;;;9.21;52.37;99386.19;5040937;28;20139;-74
2024/02/12 01:32:42;;;;;;;4.70;2.88;;;;;;;9.19;52.58;99388.22;5024865;28;20107;-74
2024/02/12 01:35:11;;;;;;;5.97;3.00;;;;;;;9.20;52.54;99395.41;5047026;28;20128;-74
2024/02/12 01:37:41;;;;;;;5.25;3.40;;;;;;;9.21;52.50;99404.44;5050758;28;20033;-74
2024/02/12 01:40:11;;;;;;;5.30;3.00;;;;;;;9.20;52.25;99408.19;5026572;28;20052;-74
2024/02/12 01:42:39;;;;;;;6.28;3.28;;;;;;;9.20;52.27;99408.19;5043874;28;20048;-74
2024/02/12 01:45:13;;;;;;;5.50;3.15;;;;;;;9.20;52.34;99408.19;5030917;28;20411;-74
2024/02/12 01:47:46;;;;;;;5.50;3.40;;;;;;;9.18;52.18;99416.53;5046585;28;20041;-74
2024/02/12 01:50:15;;;;;;;7.30;3.75;;;;;;;9.17;52.17;99412.09;5046386;28;20049;-74
2024/02/12 01:52:48;;;;;;;6.05;3.22;;;;;;;9.18;52.15;99410.22;5043849;28;20049;-74
2024/02/12 01:55:20;;;;;;;5.93;3.33;;;;;;;9.18;52.40;99430.19;5028860;28;20393;-74
2024/02/12 01:57:50;;;;;;;6.43;3.55;;;;;;;9.16;52.23;99424.03;5043341;28;20064;-74
2024/02/12 02:00:21;;;;;;;7.40;3.90;;;;;;;9.18;52.08;99429.31;5047236;28;20056;-74
2024/02/12 02:03:10;;;;;;;6.43;4.47;;;;;;;9.14;52.27;99425.22;5028939;28;20104;-74
2024/02/12 02:05:40;;;;;;;8.30;4.82;;;;;;;9.14;52.22;99431.53;5039977;28;20048;-75
2024/02/12 02:08:09;;;;;;;7.20;4.53;;;;;;;9.16;52.14;99439.56;5023214;28;20037;-74
2024/02/12 02:10:38;;;;;;;7.50;4.65;;;;;;;9.14;52.29;99439.72;5030292;28;20049;-74
2024/02/12 02:13:06;;;;;;;9.13;5.10;;;;;;;9.15;52.17;99446.03;5041997;28;20045;-74
2024/02/12 02:15:35;;;;;;;8.40;5.28;;;;;;;9.14;52.70;99444.31;5040502;28;20037;-74
2024/02/12 02:18:03;;;;;;;8.55;5.38;;;;;;;9.15;52.35;99449.63;5018739;28;20130;-74
2024/02/12 02:20:34;;;;;;;10.35;6.00;;;;;;;9.14;52.41;99452.50;5019319;28;20586;-74
2024/02/12 02:23:02;;;;;;;10.00;5.88;;;;;;;9.13;52.32;99453.50;5021824;28;20094;-74
2024/02/12 02:25:32;;;;;;;9.40;5.53;;;;;;;9.13;52.42;99459.84;5047818;28;20036;-75
2024/02/12 02:28:00;;;;;;;9.82;6.22;;;;;;;9.13;52.53;99458.97;5022891;28;20560;-74
2024/02/12 02:30:28;;;;;;;12.35;6.78;;;;;;;9.12;52.74;99460.84;5046534;28;20076;-74
2024/02/12 02:32:56;;;;;;;9.70;6.32;;;;;;;9.11;52.52;99470.03;5043751;28;20131;-74
2024/02/12 02:35:24;;;;;;;11.68;7.22;;;;;;;9.10;52.72;99463.72;5044736;28;20049;-74
2024/02/12 02:37:52;;;;;;;11.77;7.30;;;;;;;9.10;52.42;99465.59;5047180;28;20055;-74
2024/02/12 02:40:20;;;;;;;9.70;6.63;;;;;;;9.08;52.39;99465.75;5032037;28;20045;-74
2024/02/12 02:42:50;;;;;;;13.10;7.30;;;;;;;9.09;52.83;99472.94;5041217;28;20055;-73
2024/02/12 02:45:17;;;;;;;10.63;6.57;;;;;;;9.07;52.70;99466.78;5050328;28;20228;-74
2024/02/12 02:47:45;;;;;;;13.40;7.82;;;;;;;9.07;52.74;99472.25;5042278;28;20072;-74
2024/02/12 02:50:13;;;;;;;12.38;7.57;;;;;;;9.08;52.63;99476.66;5025317;28;20152;-74
2024/02/12 02:52:42;;;;;;;13.07;7.60;;;;;;;9.07;52.85;99474.97;5020662;28;20076;-74
2024/02/12 02:55:11;;;;;;;14.43;8.13;;;;;;;9.07;52.79;99469.53;5048738;28;20044;-74
2024/02/12 02:57:39;;;;;;;13.15;7.88;;;;;;;9.08;52.67;99476.66;5048246;28;20072;-74
2024/02/12 03:00:10;;;;;;;13.93;7.93;;;;;;;9.09;53.04;99472.94;5025946;28;20052;-74
2024/02/12 03:02:38;;;;;;;12.20;8.13;;;;;;;9.08;52.76;99471.22;5032581;28;20053;-74
2024/02/12 03:05:08;;;;;;;13.93;8.43;;;;;;;9.10;52.72;99474.66;5041843;28;20384;-74
2024/02/12 03:07:37;;;;;;;13.57;8.15;;;;;;;9.09;52.69;99470.19;5039841;28;20045;-74
2024/02/12 03:10:08;;;;;;;13.27;8.50;;;;;;;9.11;52.92;99478.22;5028369;28;20088;-74
2024/02/12 03:12:36;;;;;;;15.90;8.75;;;;;;;9.11;53.03;99475.50;5040386;28;20139;-74
2024/02/12 03:15:11;;;;;;;16.63;9.00;;;;;;;9.13;52.68;99475.34;5020139;28;20096;-75
2024/02/12 03:17:42;;;;;;;13.15;8.50;;;;;;;9.14;52.77;99485.25;5020416;28;20041;-75
2024/02/12 03:20:11;;;;;;;16.70;9.37;;;;;;;9.10;53.41;99491.03;5038880;28;20038;-74
2024/02/12 03:22:41;;;;;;;13.68;8.93;;;;;;;9.12;52.74;99493.59;5022876;28;20045;-74
2024/02/12 03:25:10;;;;;;;14.88;9.18;;;;;;;9.13;53.20;99498.03;5026424;28;20118;-74
2024/02/12 03:27:40;;;;;;;13.07;8.38;;;;;;;9.12;53.16;99498.19;5041581;28;20425;-74
2024/02/12 03:30:10;;;;;;;15.73;9.20;;;;;;;9.12;52.64;99503.66;5038594;28;20069;-74
2024/02/12 03:32:38;;;;;;;15.48;9.40;;;;;;;9.10;52.96;99507.41;5020814;28;20034;-73
2024/02/12 03:35:09;;;;;;;14.25;9.30;;;;;;;9.11;52.57;99511.00;5041363;28;20098;-74
2024/02/12 03:37:38;;;;;;;14.93;9.18;;;;;;;9.09;52.75;99508.41;5038797;28;20075;-74
2024/02/12 03:40:10;;;;;;;14.85;9.13;;;;;;;9.10;52.65;99512.00;5040235;28;20040;-74
2024/02/12 03:42:38;;;;;;;14.93;9.35;;;;;;;9.06;53.08;99502.44;5041976;28;20107;-74
2024/02/12 03:45:07;;;;;;;13.88;9.13;;;;;;;9.09;52.88;99510.28;5039909;28;20073;-74
2024/02/12 03:47:39;;;;;;;13.80;8.93;;;;;;;9.08;52.89;99514.88;5042344;28;20041;-74
2024/02/12 04:01:27;;;;;;;15.93;9.98;;;;;;;9.01;52.86;99554.72;5027029;28;20117;-73
2024/02/12 04:03:54;;;;;;;16.63;10.38;;;;;;;9.02;52.63;99553.72;5044432;28;20055;-74
2024/02/12 04:06:24;;;;;;;17.02;10.20;;;;;;;9.04;52.57;99561.75;5046167;28;20103;-74
2024/02/12 04:08:53;;;;;;;16.27;9.73;;;;;;;9.02;52.74;99563.78;5033935;28;20052;-73
2024/02/12 04:11:20;;;;;;;17.20;10.60;;;;;;;9.02;52.85;99566.50;5054588;28;20070;-73
2024/02/12 04:13:49;;;;;;;15.00;9.48;;;;;;;9.02;52.87;99563.78;5043257;28;20087;-73
2024/02/12 04:16:18;;;;;;;17.38;10.00;;;;;;;9.02;53.02;99569.22;5040235;28;20092;-73
2024/02/12 04:18:46;;;;;;;17.13;10.52;;;;;;;9.02;52.89;99574.69;5045777;28;20119;-73
2024/02/12 04:21:16;;;;;;;15.15;10.18;;;;;;;9.02;53.14;99574.69;5044065;28;20045;-73
2024/02/12 04:23:48;;;;;;;17.23;11.00;;;;;;;9.04;52.93;99572.69;5045049;28;20037;-74
2024/02/12 04:26:17;;;;;;;15.70;10.55;;;;;;;9.02;52.96;99580.16;5039310;28;20128;-73
2024/02/12 04:28:45;;;;;;;18.35;10.85;;;;;;;9.02;52.64;99580.16;5028116;28;20193;-73
2024/02/12 04:31:14;;;;;;;18.50;11.35;;;;;;;9.01;52.75;99578.44;5027377;28;20053;-74
2024/02/12 04:33:44;;;;;;;18.58;11.45;;;;;;;9.01;52.93;99587.47;5026177;28;20456;-73
2024/02/12 04:36:14;;;;;;;19.35;11.23;;;;;;;9.00;52.97;99587.66;5043973;28;20041;-73
2024/02/12 04:38:42;;;;;;;18.40;11.15;;;;;;;9.00;52.87;99593.94;5022642;28;20052;-73
2024/02/12 04:41:13;;;;;;;16.83;11.48;;;;;;;9.00;52.94;99591.22;5022741;28;20080;-73
2024/02/12 04:43:41;;;;;;;18.27;11.10;;;;;;;8.98;52.82;99598.72;5024808;28;20165;-73
2024/02/12 04:46:10;;;;;;;17.63;11.05;;;;;;;8.99;52.67;99596.84;5045108;28;20127;-73
2024/02/12 04:48:40;;;;;;;17.90;11.25;;;;;;;8.98;52.96;99606.06;5043232;28;20413;-74
2024/02/12 04:51:09;;;;;;;17.60;11.18;;;;;;;8.99;53.02;99602.31;5042508;28;20042;-74
2024/02/12 04:53:38;;;;;;;17.17;11.45;;;;;;;8.97;53.11;99613.38;5028937;28;20067;-73
2024/02/12 04:56:07;;;;;;;18.33;11.68;;;;;;;8.98;52.68;99617.81;5027205;28;20045;-73
2024/02/12 04:58:38;;;;;;;18.42;11.13;;;;;;;8.98;52.90;99615.09;5032688;28;20040;-73
2024/02/12 05:01:07;;;;;;;18.20;11.75;;;;;;;8.96;53.01;99617.13;5048673;28;20084;-73
2024/02/12 05:03:37;;;;;;;17.85;11.27;;;;;;;8.97;52.62;99616.09;5048365;28;20148;-74
2024/02/12 05:06:06;;;;;;;19.13;11.77;;;;;;;8.96;52.63;99625.31;5042096;28;20037;-73
2024/02/12 05:08:34;;;;;;;20.27;12.00;;;;;;;8.96;52.88;99619.84;5042030;28;20045;-73
2024/02/12 05:11:03;;;;;;;17.50;11.50;;;;;;;8.96;52.80;99619.84;5033548;28;20048;-73
2024/02/12 05:13:32;;;;;;;18.02;12.05;;;;;;;8.95;52.64;99617.25;5035506;28;20052;-73
2024/02/12 05:16:02;;;;;;;17.67;11.57;;;;;;;8.97;52.74;99621.56;5024681;28;20125;-73
2024/02/12 05:24:01;;;;;;;15.82;10.73;;;;;;;8.92;52.58;99620.28;5043303;28;20048;-73
2024/02/12 05:26:29;;;;;;;18.00;11.43;;;;;;;8.93;52.51;99622.00;5044851;28;20399;-73
2024/02/12 05:28:58;;;;;;;16.77;11.18;;;;;;;8.93;52.63;99630.19;5048475;28;20049;-73
2024/02/12 05:31:27;;;;;;;20.85;12.07;;;;;;;8.94;52.62;99626.47;5045777;28;20147;-73
2024/02/12 05:33:55;;;;;;;18.92;11.95;;;;;;;8.92;52.63;99631.19;5023441;28;20048;-74
2024/02/12 05:36:24;;;;;;;19.80;11.60;;;;;;;8.92;52.73;99642.97;5049099;28;20041;-73
2024/02/12 05:38:52;;;;;;;16.75;10.63;;;;;;;8.92;52.88;99636.66;5047459;28;20057;-74
2024/02/12 05:41:20;;;;;;;18.70;11.43;;;;;;;8.91;52.76;99640.44;5050332;28;20051;-74
2024/02/12 05:43:48;;;;;;;16.90;11.00;;;;;;;8.90;52.55;99625.06;5047597;28;20041;-74
2024/02/12 05:46:16;;;;;;;17.77;11.23;;;;;;;8.89;52.54;99626.94;5045148;28;20041;-73
2024/02/12 05:48:47;;;;;;;16.60;10.85;;;;;;;8.91;52.53;99630.38;5044728;28;20147;-74
2024/02/12 05:51:15;;;;;;;16.75;10.77;;;;;;;8.89;52.41;99628.81;5047801;28;20068;-74
2024/02/12 05:53:44;;;;;;;16.73;10.98;;;;;;;8.90;52.86;99630.53;5044888;28;20075;-73
2024/02/12 05:56:12;;;;;;;16.63;10.50;;;;;;;8.89;52.83;99628.81;5023747;28;20095;-74
2024/02/12 05:58:42;;;;;;;17.02;10.23;;;;;;;8.91;52.54;99626.78;5026908;28;20131;-73
2024/02/12 06:01:11;;;;;;;16.35;11.07;;;;;;;8.90;52.38;99634.09;5044813;28;20392;-73
2024/02/12 06:03:39;;;;;;;18.85;10.65;;;;;;;8.89;52.67;99642.44;5017339;28;20124;-73
2024/02/12 06:06:09;;;;;;;15.73;10.10;;;;;;;8.90;52.36;99647.75;5043545;28;20397;-73
2024/02/12 06:08:37;;;;;;;17.30;11.02;;;;;;;8.88;52.20;99651.63;5035634;28;20041;-73
2024/02/12 06:11:05;;;;;;;17.95;10.38;;;;;;;8.88;52.27;99657.09;5031895;28;20041;-73
2024/02/12 06:13:34;;;;;;;18.02;11.45;;;;;;;8.87;52.50;99655.38;5044624;28;20354;-73
2024/02/12 06:16:02;;;;;;;14.90;10.05;;;;;;;8.86;52.59;99653.66;5036572;28;20045;-73
2024/02/12 06:18:30;;;;;;;14.90;10.43;;;;;;;8.87;52.06;99669.00;5044486;28;20103;-73
2024/02/12 06:20:58;;;;;;;15.98;10.20;;;;;;;8.84;51.83;99670.16;5044532;28;20045;-73
2024/02/12 06:23:27;;;;;;;14.60;9.90;;;;;;;8.86;51.84;99680.94;5042371;28;20061;-73
2024/02/12 06:25:55;;;;;;;17.38;10.07;;;;;;;8.82;51.73;99679.53;5037201;28;20151;-73
2024/02/12 06:28:23;;;;;;;17.85;10.65;;;;;;;8.82;51.68;99682.25;5043860;28;20472;-73
2024/02/12 06:30:51;;;;;;;16.08;10.15;;;;;;;8.81;51.99;99683.28;5045702;28;20121;-73
2024/02/12 06:33:20;;;;;;;16.02;9.93;;;;;;;8.79;51.96;99688.88;5024866;28;20037;-72
2024/02/12 06:35:48;;;;;;;16.58;10.13;;;;;;;8.78;52.13;99695.34;5045322;28;20045;-73
2024/02/12 06:38:16;;;;;;;16.83;10.65;;;;;;;8.77;52.07;99699.06;5027071;28;20148;-72
2024/02/12 06:40:45;;;;;;;16.92;10.95;;;;;;;8.78;51.85;99702.66;5033156;28;20100;-72
2024/02/12 06:43:13;;;;;;;18.48;11.07;;;;;;;8.76;52.24;99707.41;5044529;28;20607;-72
2024/02/12 06:45:41;;;;;;;18.17;11.50;;;;;;;8.76;51.92;99723.75;5044278;28;20037;-73
2024/02/12 06:48:09;;;;;;;17.83;11.07;;;;;;;8.75;52.00;99724.81;5041896;28;20087;-72
2024/02/12 06:50:37;;;;;;;16.38;11.18;;;;;;;8.74;51.76;99728.53;5028930;28;20053;-74
2024/02/12 06:53:06;;;;;;;17.33;11.32;;;;;;;8.72;52.01;99728.69;5045868;28;20048;-75
2024/02/12 06:55:34;;;;;;;16.88;11.52;;;;;;;8.71;52.04;99729.69;5028161;28;20045;-75
2024/02/12 06:58:04;;;;;;;17.02;11.27;;;;;;;8.71;52.25;99725.09;5045074;28;20039;-74
2024/02/12 07:00:32;;;;;;;18.20;10.85;;;;;;;8.69;52.44;99735.28;5027457;28;20538;-76
2024/02/12 07:03:00;;;;;;;16.98;10.70;;;;;;;8.68;51.89;99732.69;5018184;28;20052;-74
2024/02/12 07:05:28;;;;;;;20.33;11.88;;;;;;;8.68;52.27;99732.69;5038405;28;20041;-75
2024/02/12 07:07:57;;;;;;;17.95;11.07;;;;;;;8.68;52.20;99740.88;5017329;28;20060;-74
2024/02/12 07:10:25;;;;;;;15.18;10.50;;;;;;;8.68;52.03;99746.34;5020835;28;20252;-74
2024/02/12 07:12:52;;;;;;;18.85;10.55;;;;;;;8.69;52.59;99750.78;5038937;28;21131;-74
2024/02/12 07:15:22;;;;;;;20.35;11.27;;;;;;;8.71;52.52;99754.22;5040182;28;20685;-74
2024/02/12 07:17:50;;;;;;;18.92;11.32;;;;;;;8.69;52.78;99756.25;5023300;28;20067;-74
2024/02/12 07:20:17;;;;;;;16.85;10.85;;;;;;;8.70;52.39;99763.41;5024302;28;20067;-75
2024/02/12 07:22:45;;;;;;;17.40;10.98;;;;;;;8.69;52.39;99761.69;5043593;28;20068;-74
2024/02/12 07:25:13;;;;;;;20.42;11.32;;;;;;;8.70;52.46;99771.59;5027081;28;20483;-74
2024/02/12 07:27:43;;;;;;;19.40;11.30;;;;;;;8.71;52.60;99778.78;5031059;28;20040;-75
2024/02/12 07:30:12;;;;;;;17.75;10.60;;;;;;;8.71;52.58;99771.47;5042476;28;20036;-74
2024/02/12 07:32:41;;;;;;;18.73;11.23;;;;;;;8.74;52.49;99783.09;5040137;28;20428;-74
2024/02/12 07:35:09;;;;;;;14.32;9.70;;;;;;;8.73;52.98;99782.22;5044345;28;20122;-75
2024/02/12 07:37:38;;;;;;;18.05;10.80;;;;;;;8.74;52.66;99785.81;5033749;28;20048;-75
2024/02/12 07:40:10;;;;;;;17.50;10.68;;;;;;;8.75;52.71;99784.81;5038810;28;20048;-74
2024/02/12 07:42:39;;;;;;;16.45;10.80;;;;;;;8.72;52.67;99794.16;5039588;28;20041;-75
2024/02/12 07:45:10;;;;;;;17.20;11.07;;;;;;;8.76;52.62;99795.56;5025338;28;20098;-75
2024/02/12 07:47:39;;;;;;;16.80;9.57;;;;;;;8.76;52.85;99801.00;5028537;28;20175;-75
2024/02/12 07:50:10;;;;;;;17.98;10.52;;;;;;;8.79;53.17;99798.00;5042435;28;20041;-74
2024/02/12 07:52:39;;;;;;;16.90;10.35;;;;;;;8.78;53.19;99798.13;5031741;28;20125;-75
2024/02/12 07:55:10;;;;;;;18.50;10.38;;;;;;;8.81;53.05;99808.75;5025045;28;20125;-75
2024/02/12 07:57:38;;;;;;;20.23;10.65;;;;;;;8.81;53.21;99808.75;5024941;28;20555;-75
2024/02/12 08:00:08;;;;;;;17.63;10.23;;;;;;;8.83;53.12;99809.50;5046621;28;20133;-74
2024/02/12 08:02:36;;;;;;;15.52;9.48;;;;;;;8.83;53.19;99810.34;5015666;28;20045;-75
2024/02/12 08:05:05;;;;;;;18.80;10.48;;;;;;;8.85;53.14;99815.63;5032853;28;20075;-75
2024/02/12 08:07:34;;;;;;;16.05;10.10;;;;;;;8.86;52.77;99820.09;5028120;28;20048;-74
2024/02/12 08:10:19;;;;;;;16.33;10.48;;;;;;;8.85;52.86;99815.63;5035571;28;20307;-75
2024/02/12 08:12:47;;;;;;;17.27;9.80;;;;;;;8.86;53.03;99826.41;5018513;28;20044;-74
2024/02/12 08:15:15;;;;;;;17.83;10.23;;;;;;;8.88;52.48;99823.53;5037532;28;20037;-74
2024/02/12 08:17:43;;;;;;;15.60;9.75;;;;;;;8.89;53.01;99830.72;5035705;28;20123;-75
2024/02/12 08:20:12;;;;;;;17.75;10.50;;;;;;;8.89;53.15;99833.44;5027780;28;20045;-74
2024/02/12 08:22:42;;;;;;;18.10;10.38;;;;;;;8.91;53.33;99843.22;5044171;28;20049;-75
2024/02/12 08:25:11;;;;;;;15.48;10.38;;;;;;;8.89;52.97;99845.22;5035388;28;20076;-75
2024/02/12 08:27:38;;;;;;;15.10;9.60;;;;;;;8.91;53.01;99848.66;5024770;28;20128;-75
2024/02/12 08:30:09;;;;;;;15.55;9.40;;;;;;;8.91;53.20;99848.66;5031220;28;20490;-75
2024/02/12 08:32:37;;;;;;;15.93;9.85;;;;;;;8.91;52.86;99847.81;5020907;28;20132;-75
2024/02/12 08:35:06;;;;;;;15.80;9.73;;;;;;;8.91;53.33;99854.13;5034134;28;20597;-74
2024/02/12 08:37:37;;;;;;;16.75;9.98;;;;;;;8.93;53.14;99868.44;5036778;28;20047;-74
2024/02/12 08:40:10;;;;;;;16.42;10.85;;;;;;;8.93;53.21;99859.41;5047215;28;20076;-74
2024/02/12 08:42:41;;;;;;;17.48;10.07;;;;;;;8.92;53.13;99865.88;5025420;28;20376;-75
2024/02/12 08:45:11;;;;;;;15.38;9.15;;;;;;;8.92;53.06;99866.72;5045788;28;20055;-74
2024/02/12 08:47:39;;;;;;;15.70;9.32;;;;;;;8.93;53.40;99864.88;5047712;28;20052;-73
2024/02/12 08:50:10;;;;;;;15.55;9.73;;;;;;;8.93;53.57;99873.91;5052671;28;20065;-74
2024/02/12 08:52:39;;;;;;;13.88;9.10;;;;;;;8.93;53.59;99873.06;5036427;28;20491;-74
2024/02/12 08:55:10;;;;;;;16.52;9.77;;;;;;;8.96;53.14;99876.34;5056399;28;20486;-76
2024/02/12 08:57:41;;;;;;;12.70;8.35;;;;;;;8.94;53.54;99872.91;5040236;28;20060;-73
2024/02/12 09:00:11;;;;;;;14.93;8.90;;;;;;;8.97;53.60;99882.69;5029814;28;20067;-73
2024/02/12 09:02:40;;;;;;;14.80;9.07;;;;;;;8.97;53.32;99888.13;5050497;28;20036;-73
2024/02/12 09:05:10;;;;;;;14.50;8.77;;;;;;;8.98;53.36;99889.84;5042830;28;20064;-73
2024/02/12 09:07:39;;;;;;;14.00;8.82;;;;;;;8.98;53.58;99889.84;5022659;28;20074;-73
2024/02/12 09:10:11;;;;;;;13.85;8.98;;;;;;;9.01;53.38;99895.00;5025483;28;20053;-75
2024/02/12 09:12:42;;;;;;;14.45;8.63;;;;;;;9.00;53.40;99904.22;5039575;28;20133;-76
2024/02/12 09:15:14;;;;;;;14.05;8.48;;;;;;;9.00;53.74;99909.69;5029735;28;20041;-73
2024/02/12 09:17:42;;;;;;;14.93;9.05;;;;;;;9.02;53.37;99911.25;5032034;28;20037;-73
2024/02/12 09:20:14;;;;;;;13.75;8.65;;;;;;;9.04;53.22;99914.69;5045023;28;20128;-73
2024/02/12 09:22:42;;;;;;;14.65;8.38;;;;;;;9.03;52.98;99918.41;5042038;28;20677;-73
2024/02/12 09:25:12;;;;;;;11.80;7.63;;;;;;;9.06;53.45;99918.13;5055281;28;20079;-73
2024/02/12 09:27:45;;;;;;;14.20;7.78;;;;;;;9.07;52.94;99924.47;5043417;28;20045;-73
2024/02/12 09:30:15;;;;;;;11.38;7.57;;;;;;;9.08;53.17;99920.72;5037046;28;20427;-74
2024/02/12 09:32:46;;;;;;;11.57;6.80;;;;;;;9.07;52.87;99929.91;5049441;28;20267;-74
2024/02/12 09:35:17;;;;;;;13.95;7.63;;;;;;;9.08;52.90;99931.63;5047323;28;20041;-75
2024/02/12 09:37:47;;;;;;;11.20;6.63;;;;;;;9.08;52.67;99946.13;5046174;28;20044;-74
2024/02/12 09:40:21;;;;;;;14.10;7.70;;;;;;;9.10;52.57;99945.97;5052145;28;20041;-74
2024/02/12 09:42:53;;;;;;;13.05;7.63;;;;;;;9.09;52.41;99950.56;5028392;28;20122;-74
2024/02/12 09:45:25;;;;;;;15.60;7.82;;;;;;;9.07;52.19;99935.38;5035508;28;20048;-74
2024/02/12 09:47:54;;;;;;;12.85;7.20;;;;;;;9.08;52.35;99942.56;5052312;28;20135;-74
2024/02/12 09:50:23;;;;;;;10.52;7.22;;;;;;;9.06;52.41;99945.44;5047937;28;20041;-74
2024/02/12 09:52:51;;;;;;;10.75;5.97;;;;;;;9.05;52.55;99945.56;5021628;28;20653;-75
2024/02/12 09:55:22;;;;;;;9.82;5.88;;;;;;;9.06;51.70;99945.44;5029607;28;20545;-74
2024/02/12 09:57:50;;;;;;;8.43;5.18;;;;;;;9.05;51.79;99948.31;5048382;28;20052;-74
2024/02/12 10:00:22;;;;;;;11.48;6.00;;;;;;;9.04;52.35;99955.63;5021224;28;20103;-74
2024/02/12 10:02:53;;;;;;;7.93;4.82;;;;;;;9.06;52.40;99960.94;5023325;28;20492;-75
2024/02/12 10:05:21;;;;;;;7.43;4.50;;;;;;;9.05;52.77;99959.22;5034894;28;20045;-76
2024/02/12 10:07:50;;;;;;;7.50;4.70;;;;;;;9.07;52.21;99963.53;5031929;28;20221;-75
2024/02/12 10:10:18;;;;;;;8.13;4.93;;;;;;;9.12;52.50;99962.22;5053117;28;20036;-76
2024/02/12 10:12:53;;;;;;;7.85;4.80;;;;;;;9.17;51.67;99963.47;5037319;28;20045;-77
2024/02/12 10:15:23;;;;;;;7.38;5.22;;;;;;;9.17;52.28;99970.81;5030606;28;20079;-76
2024/02/12 10:17:54;;;;;;;9.10;5.40;;;;;;;9.21;51.99;99972.25;5045712;28;20049;-77
2024/02/12 10:20:24;;;;;;;6.57;4.60;;;;;;;9.20;52.04;99974.13;5029306;28;20424;-77
2024/02/12 10:22:52;;;;;;;11.35;5.10;;;;;;;9.24;52.13;99977.44;5033167;28;20055;-77
2024/02/12 10:25:21;;;;;;;7.78;4.80;;;;;;;9.27;51.93;99979.84;5028364;28;20148;-77
2024/02/12 10:27:49;;;;;;;7.63;4.78;;;;;;;9.29;51.99;99977.84;5033644;28;20376;-77
2024/02/12 10:30:18;;;;;;;6.78;4.78;;;;;;;9.31;51.66;99984.03;5050553;28;20938;-78
2024/02/12 10:32:49;;;;;;;7.57;4.65;;;;;;;9.31;51.61;99973.09;5031991;28;20056;-77
2024/02/12 10:35:22;;;;;;;7.55;4.95;;;;;;;9.32;51.32;99983.03;5034036;28;20061;-77
2024/02/12 10:37:52;;;;;;;8.02;4.20;;;;;;;9.32;51.06;99977.56;5040014;28;20045;-76
2024/02/12 10:40:29;;;;;;;7.97;4.65;;;;;;;9.36;50.94;99984.44;5035202;28;20059;-78
2024/02/12 10:43:03;;;;;;;5.68;4.07;;;;;;;9.35;51.00;99983.56;5024046;28;20117;-78
2024/02/12 10:45:34;;;;;;;5.60;3.67;;;;;;;9.35;51.46;99985.44;5048400;28;20391;-78
2024/02/12 10:48:04;;;;;;;7.20;3.95;;;;;;;9.36;51.79;99992.63;5028024;28;20076;-78
2024/02/12 10:50:37;;;;;;;9.07;4.20;;;;;;;9.38;51.21;99994.25;5039081;28;20041;-77
2024/02/12 10:53:06;;;;;;;7.32;3.80;;;;;;;9.38;51.79;99996.97;5035148;28;20052;-77
2024/02/12 10:55:37;;;;;;;7.40;4.13;;;;;;;9.43;51.32;100001.97;5048517;28;20041;-78
2024/02/12 10:58:08;;;;;;;8.52;3.95;;;;;;;9.45;50.88;99999.97;5044740;28;20135;-77
2024/02/12 11:00:40;;;;;;;6.50;3.80;;;;;;;9.50;50.59;100000.38;5054628;28;20045;-76
2024/02/12 11:03:19;;;;;;;;;;;;;;;9.25;51.15;99999.09;5025317;28;20053;-76
2024/02/12 11:05:48;;;;;;;6.88;3.45;;;;;;;9.50;51.42;100002.22;5050626;28;19921;-77
2024/02/12 11:08:18;;;;;;;6.68;3.70;;;;;;;9.56;51.32;100009.84;5030905;28;20111;-77
2024/02/12 11:10:49;;;;;;;8.75;3.47;;;;;;;9.62;50.80;100014.72;5033245;28;20098;-77
2024/02/12 11:13:19;;;;;;;6.90;3.40;;;;;;;9.63;50.63;100010.97;5031188;28;20077;-77
2024/02/12 11:15:52;;;;;;;5.00;3.30;;;;;;;9.67;49.49;100015.13;5046211;28;20112;-77
2024/02/12 11:18:22;;;;;;;6.53;3.63;;;;;;;9.69;50.38;100018.56;5020344;28;20096;-78
2024/02/12 11:20:53;;;;;;;5.25;3.25;;;;;;;9.71;50.23;100022.88;5032252;28;20077;-78
2024/02/12 11:23:22;;;;;;;6.28;3.30;;;;;;;9.74;49.81;100035.41;5027224;28;20073;-77
2024/02/12 11:25:50;;;;;;;6.35;3.60;;;;;;;9.74;49.60;100032.66;5033869;28;20049;-78
2024/02/12 11:28:24;;;;;;;6.30;3.40;;;;;;;9.74;50.13;100038.13;5033640;28;20174;-77
2024/02/12 11:30:54;;;;;;;6.70;3.50;;;;;;;9.78;49.53;100043.13;5033895;28;20041;-77
2024/02/12 11:33:24;;;;;;;7.15;3.47;;;;;;;9.79;49.53;100036.66;5024426;28;20029;-77
2024/02/12 11:36:05;;;;;;;6.35;3.83;;;;;;;9.84;48.25;100036.19;5031283;28;20432;-77
2024/02/12 11:38:36;;;;;;;5.28;3.40;;;;;;;9.82;49.39;100035.50;5039857;28;20045;-75
2024/02/12 11:41:05;;;;;;;5.47;3.20;;;;;;;9.84;49.77;100038.94;5041244;28;20101;-76
2024/02/12 11:43:33;;;;;;;5.97;3.30;;;;;;;9.86;49.83;100036.91;5026915;28;20140;-76
2024/02/12 11:46:03;;;;;;;5.70;3.22;;;;;;;9.91;49.49;100047.38;5044982;28;20098;-76
2024/02/12 11:48:31;;;;;;;6.65;3.80;;;;;;;9.92;49.42;100041.78;5034557;28;20141;-76
2024/02/12 11:50:59;;;;;;;5.55;2.95;;;;;;;9.95;49.59;100049.69;5046616;28;20457;-76
2024/02/12 11:53:27;;;;;;;5.30;3.00;;;;;;;9.97;49.29;100053.16;5036674;28;20041;-76
2024/02/12 11:55:55;;;;;;;5.53;3.05;;;;;;;10.01;48.98;100050.94;5019951;28;20064;-76
2024/02/12 11:58:23;;;;;;;4.70;2.60;;;;;;;10.04;48.77;100053.41;5043396;28;20543;-76
2024/02/12 12:00:51;;;;;;;6.63;3.70;;;;;;;10.06;48.71;100051.38;5016283;28;20057;-75